createdAt,value
2023-01-29T00:02:23.569Z,16.00
2023-01-29T00:04:51.577Z,12.30
2023-01-29T00:07:18.845Z,14.10
2023-01-29T00:09:46.349Z,16.70
2023-01-29T00:12:13.877Z,16.50
2023-01-29T00:14:41.087Z,17.80
2023-01-29T00:17:10.639Z,14.30
2023-01-29T00:19:38.546Z,14.90
2023-01-29T00:22:05.907Z,17.00
2023-01-29T00:24:33.307Z,14.10
2023-01-29T00:27:00.697Z,12.30
2023-01-29T00:29:28.156Z,11.60
2023-01-29T00:31:55.889Z,12.20
2023-01-29T00:34:24.212Z,14.00
2023-01-29T00:36:51.578Z,14.60
2023-01-29T00:39:29.351Z,12.80
2023-01-29T00:42:21.834Z,13.30
2023-01-29T00:44:58.641Z,12.10
2023-01-29T00:47:33.977Z,11.50
2023-01-29T00:50:03.004Z,12.10
2023-01-29T00:52:30.652Z,16.40
2023-01-29T00:55:00.497Z,12.40
2023-01-29T00:57:30.292Z,11.80
2023-01-29T00:59:58.126Z,11.10
2023-01-29T01:02:44.236Z,11.90
2023-01-29T01:05:20.171Z,10.30
2023-01-29T01:07:50.023Z,10.30
2023-01-29T01:10:24.676Z,9.00
2023-01-29T01:12:55.058Z,9.90
2023-01-29T01:15:24.757Z,9.80
2023-01-29T01:18:00.065Z,10.60
2023-01-29T01:20:29.681Z,10.80
2023-01-29T01:22:57.497Z,109.00
2023-01-29T01:25:26.790Z,15.50
2023-01-29T01:27:54.982Z,12.30
2023-01-29T01:30:23.479Z,11.20
2023-01-29T01:32:50.901Z,9.60
2023-01-29T01:35:18.283Z,10.60
2023-01-29T01:37:45.564Z,9.90
2023-01-29T01:40:20.695Z,10.10
2023-01-29T01:42:56.900Z,10.40
2023-01-29T01:48:04.297Z,10.10
2023-01-29T01:50:47.324Z,9.60
2023-01-29T01:53:19.292Z,10.10
2023-01-29T01:55:51.127Z,8.20
2023-01-29T01:58:37.432Z,9.00
2023-01-29T02:04:19.712Z,10.70
2023-01-29T02:07:06.798Z,9.70
2023-01-29T02:09:41.083Z,9.70
2023-01-29T02:12:13.674Z,9.40
2023-01-29T02:14:43.007Z,7.00
2023-01-29T02:17:16.379Z,7.50
2023-01-29T02:20:08.184Z,8.90
2023-01-29T02:23:18.570Z,8.40
2023-01-29T02:26:17.195Z,7.30
2023-01-29T02:28:53.928Z,7.80
2023-01-29T02:31:32.818Z,7.60
2023-01-29T02:34:19.141Z,7.00
2023-01-29T02:36:52.713Z,7.00
2023-01-29T02:39:44.947Z,6.90
2023-01-29T02:42:31.534Z,7.70
2023-01-29T02:45:04.235Z,7.20
2023-01-29T02:47:40.614Z,7.30
2023-01-29T02:50:37.989Z,7.50
2023-01-29T02:53:14.312Z,7.50
2023-01-29T02:58:42.568Z,6.70
2023-01-29T03:01:38.316Z,6.50
2023-01-29T03:04:13.627Z,6.70
2023-01-29T03:06:49.737Z,7.20
2023-01-29T03:09:23.287Z,7.90
2023-01-29T03:12:28.797Z,7.70
2023-01-29T03:15:14.581Z,8.00
2023-01-29T03:17:54.971Z,8.20
2023-01-29T03:20:29.969Z,7.00
2023-01-29T03:23:04.656Z,6.60
2023-01-29T03:25:53.974Z,7.60
2023-01-29T03:28:41.789Z,8.00
2023-01-29T03:31:33.152Z,8.00
2023-01-29T03:34:25.075Z,6.60
2023-01-29T03:37:04.487Z,8.10
2023-01-29T03:39:32.149Z,7.50
2023-01-29T03:42:02.084Z,7.80
2023-01-29T03:44:52.478Z,7.00
2023-01-29T03:47:38.159Z,6.40
2023-01-29T03:50:20.651Z,6.10
2023-01-29T03:53:04.159Z,5.80
2023-01-29T03:55:42.526Z,6.10
2023-01-29T03:58:36.402Z,7.20
2023-01-29T04:01:12.083Z,6.70
2023-01-29T04:03:48.064Z,7.00
2023-01-29T04:06:21.208Z,6.00
2023-01-29T04:08:58.088Z,5.30
2023-01-29T04:11:27.998Z,5.40
2023-01-29T04:13:56.759Z,5.90
2023-01-29T04:16:29.944Z,6.40
2023-01-29T04:18:58.228Z,6.10
2023-01-29T04:21:26.631Z,6.10
2023-01-29T04:23:54.623Z,6.00
2023-01-29T04:26:37.704Z,5.30
2023-01-29T04:29:40.493Z,5.80
2023-01-29T04:32:39.203Z,4.20
2023-01-29T04:35:12.623Z,4.80
2023-01-29T04:38:06.187Z,5.60
2023-01-29T04:40:56.144Z,5.10
2023-01-29T04:43:28.904Z,4.80
2023-01-29T04:46:16.034Z,5.20
2023-01-29T04:49:01.844Z,4.60
2023-01-29T04:51:59.246Z,4.00
2023-01-29T04:54:58.895Z,4.00
2023-01-29T04:58:04.294Z,4.30
2023-01-29T05:00:38.707Z,3.90
2023-01-29T05:03:10.161Z,4.60
2023-01-29T05:05:39.786Z,4.70
2023-01-29T05:08:08.492Z,4.50
2023-01-29T05:10:36.256Z,3.90
2023-01-29T05:13:05.975Z,4.80
2023-01-29T05:15:50.947Z,5.10
2023-01-29T05:18:18.353Z,4.70
2023-01-29T05:20:47.398Z,5.30
2023-01-29T05:23:22.878Z,4.70
2023-01-29T05:25:52.367Z,4.50
2023-01-29T05:28:19.953Z,4.90
2023-01-29T05:30:49.659Z,4.80
2023-01-29T05:33:25.200Z,4.90
2023-01-29T05:35:52.974Z,5.30
2023-01-29T05:38:20.995Z,5.70
2023-01-29T05:40:48.589Z,4.20
2023-01-29T05:43:22.032Z,5.10
2023-01-29T05:46:07.984Z,5.50
2023-01-29T05:48:35.522Z,4.80
2023-01-29T05:51:04.992Z,4.60
2023-01-29T05:53:33.818Z,4.20
2023-01-29T05:56:25.881Z,3.40
2023-01-29T05:58:53.198Z,4.00
2023-01-29T06:01:26.325Z,4.20
2023-01-29T06:03:53.780Z,3.80
2023-01-29T06:06:21.400Z,4.40
2023-01-29T06:08:48.819Z,3.70
2023-01-29T06:11:18.827Z,4.50
2023-01-29T06:13:46.307Z,4.20
2023-01-29T06:16:14.574Z,3.90
2023-01-29T06:18:42.551Z,4.10
2023-01-29T06:21:12.896Z,3.80
2023-01-29T06:23:40.654Z,4.20
2023-01-29T06:26:11.210Z,4.40
2023-01-29T06:28:40.096Z,3.80
2023-01-29T06:31:24.988Z,3.90
2023-01-29T06:33:56.330Z,3.60
2023-01-29T06:36:23.737Z,3.70
2023-01-29T06:38:50.994Z,3.20
2023-01-29T06:41:20.279Z,3.70
2023-01-29T06:43:48.320Z,3.30
2023-01-29T06:46:15.421Z,4.20
2023-01-29T06:48:43.314Z,4.00
2023-01-29T06:51:11.957Z,3.90
2023-01-29T06:53:40.452Z,4.30
2023-01-29T06:56:08.324Z,4.10
2023-01-29T06:58:39.162Z,4.30
2023-01-29T07:01:09.740Z,4.80
2023-01-29T07:03:37.591Z,4.60
2023-01-29T07:06:05.943Z,4.60
2023-01-29T07:08:37.484Z,5.50
2023-01-29T07:11:05.664Z,5.40
2023-01-29T07:13:33.530Z,5.70
2023-01-29T07:16:02.651Z,7.10
2023-01-29T07:18:31.397Z,7.30
2023-01-29T07:20:58.942Z,6.90
2023-01-29T07:23:26.706Z,7.40
2023-01-29T07:25:54.113Z,7.50
2023-01-29T07:28:21.331Z,7.20
2023-01-29T07:30:48.575Z,6.10
2023-01-29T07:33:15.712Z,6.50
2023-01-29T07:35:44.209Z,6.80
2023-01-29T07:38:12.204Z,7.10
2023-01-29T07:40:39.712Z,8.50
2023-01-29T07:43:08.131Z,7.90
2023-01-29T07:45:37.319Z,8.90
2023-01-29T07:48:06.000Z,7.40
2023-01-29T07:50:35.089Z,7.20
2023-01-29T07:53:03.031Z,8.80
2023-01-29T07:55:32.189Z,8.20
2023-01-29T07:58:01.938Z,8.10
2023-01-29T08:00:31.702Z,7.90
2023-01-29T08:03:07.779Z,9.30
2023-01-29T08:05:35.387Z,10.80
2023-01-29T08:08:07.038Z,10.80
2023-01-29T08:10:36.140Z,9.20
2023-01-29T08:13:04.924Z,12.00
2023-01-29T08:15:33.010Z,10.70
2023-01-29T08:18:02.410Z,11.30
2023-01-29T08:20:29.721Z,11.40
2023-01-29T08:23:06.361Z,11.60
2023-01-29T08:25:35.324Z,12.50
2023-01-29T08:28:02.837Z,10.70
2023-01-29T08:30:33.492Z,10.80
2023-01-29T08:33:00.979Z,12.50
2023-01-29T08:35:28.492Z,10.20
2023-01-29T08:38:00.101Z,10.60
2023-01-29T08:40:29.582Z,10.70
2023-01-29T08:43:07.023Z,12.70
2023-01-29T08:45:37.900Z,12.50
2023-01-29T08:48:05.642Z,11.20
2023-01-29T08:50:35.254Z,10.90
2023-01-29T08:53:05.215Z,9.60
2023-01-29T08:55:32.410Z,10.00
2023-01-29T08:57:59.778Z,9.60
2023-01-29T09:00:27.109Z,9.50
2023-01-29T09:02:54.443Z,8.10
2023-01-29T09:05:21.900Z,9.40
2023-01-29T09:07:49.267Z,10.20
2023-01-29T09:10:19.188Z,9.60
2023-01-29T09:12:47.434Z,8.10
2023-01-29T09:15:15.199Z,9.60
2023-01-29T09:17:43.816Z,9.70
2023-01-29T09:20:11.674Z,8.70
2023-01-29T09:22:39.052Z,9.40
2023-01-29T09:25:07.337Z,9.80
2023-01-29T09:27:34.715Z,9.80
2023-01-29T09:30:01.976Z,9.00
2023-01-29T09:35:18.571Z,7.40
2023-01-29T09:37:50.297Z,7.70
2023-01-29T09:40:52.083Z,6.50
2023-01-29T09:43:28.002Z,6.70
2023-01-29T09:46:03.567Z,7.30
2023-01-29T09:48:34.795Z,6.50
2023-01-29T09:51:11.161Z,6.50
2023-01-29T09:53:49.970Z,6.70
2023-01-29T09:56:21.967Z,7.10
2023-01-29T09:58:50.008Z,6.20
2023-01-29T10:01:39.434Z,6.70
2023-01-29T10:04:36.853Z,6.90
2023-01-29T10:07:10.283Z,6.60
2023-01-29T10:10:07.995Z,6.70
2023-01-29T10:13:00.027Z,7.10
2023-01-29T10:15:47.142Z,5.90
2023-01-29T10:18:53.822Z,7.10
2023-01-29T10:21:42.784Z,6.50
2023-01-29T10:24:30.876Z,6.60
2023-01-29T10:27:00.499Z,7.00
2023-01-29T10:29:29.476Z,7.30
2023-01-29T10:32:05.533Z,6.10
2023-01-29T10:37:24.823Z,6.30
2023-01-29T10:39:52.203Z,7.60
2023-01-29T10:42:34.976Z,7.00
2023-01-29T10:45:16.059Z,7.70
2023-01-29T10:48:06.809Z,7.30
2023-01-29T10:50:58.172Z,6.70
2023-01-29T10:53:49.614Z,7.20
2023-01-29T10:56:33.813Z,5.20
2023-01-29T10:59:09.302Z,6.00
2023-01-29T11:01:36.671Z,6.00
2023-01-29T11:04:07.190Z,6.40
2023-01-29T11:06:36.668Z,6.30
2023-01-29T11:09:29.168Z,5.90
2023-01-29T11:12:20.198Z,6.20
2023-01-29T11:14:56.416Z,6.80
2023-01-29T11:17:25.702Z,6.90
2023-01-29T11:19:58.101Z,7.30
2023-01-29T11:22:28.409Z,7.80
2023-01-29T11:25:20.573Z,7.40
2023-01-29T11:27:51.536Z,8.00
2023-01-29T11:30:27.831Z,7.70
2023-01-29T11:35:37.866Z,8.20
2023-01-29T11:38:17.569Z,8.30
2023-01-29T11:40:45.988Z,8.50
2023-01-29T11:43:31.686Z,9.30
2023-01-29T11:46:12.688Z,8.20
2023-01-29T11:48:48.553Z,9.00
2023-01-29T11:51:27.748Z,8.60
2023-01-29T11:54:02.749Z,7.60
2023-01-29T11:56:43.568Z,7.50
2023-01-29T11:59:43.345Z,8.10
2023-01-29T12:02:42.650Z,8.80
2023-01-29T12:05:27.958Z,8.00
2023-01-29T12:08:00.655Z,9.50
2023-01-29T12:10:41.374Z,9.80
2023-01-29T12:13:12.408Z,7.70
2023-01-29T12:15:41.405Z,8.80
2023-01-29T12:18:36.248Z,9.80
2023-01-29T12:21:06.045Z,9.40
2023-01-29T12:23:50.550Z,10.90
2023-01-29T12:26:33.301Z,12.50
2023-01-29T12:29:16.328Z,11.00
2023-01-29T12:31:55.884Z,9.90
2023-01-29T12:34:49.741Z,9.90
2023-01-29T12:37:29.327Z,10.70
2023-01-29T12:39:56.801Z,9.70
2023-01-29T12:42:26.071Z,9.50
2023-01-29T12:44:59.209Z,9.10
2023-01-29T12:47:40.725Z,10.10
2023-01-29T12:50:37.222Z,10.00
2023-01-29T12:53:32.751Z,11.70
2023-01-29T12:56:08.242Z,10.60
2023-01-29T12:58:55.355Z,9.10
2023-01-29T13:01:46.425Z,10.50
2023-01-29T13:04:26.469Z,10.20
2023-01-29T13:07:00.489Z,10.20
2023-01-29T13:09:31.130Z,10.50
2023-01-29T13:12:10.723Z,10.70
2023-01-29T13:14:56.263Z,8.70
2023-01-29T13:17:38.934Z,12.50
2023-01-29T13:20:20.432Z,12.40
2023-01-29T13:22:49.698Z,11.20
2023-01-29T13:26:16.892Z,9.90
2023-01-29T13:28:50.532Z,12.10
2023-01-29T13:31:19.815Z,13.00
2023-01-29T13:34:35.901Z,13.00
2023-01-29T13:37:31.164Z,13.80
2023-01-29T13:40:45.804Z,15.90
2023-01-29T13:43:39.719Z,16.50
2023-01-29T13:46:32.674Z,16.90
2023-01-29T13:49:05.402Z,17.20
2023-01-29T13:52:07.339Z,16.30
2023-01-29T13:55:14.525Z,15.50
2023-01-29T13:58:05.091Z,15.80
2023-01-29T14:00:50.553Z,14.50
2023-01-29T14:03:18.768Z,15.30
2023-01-29T14:05:57.819Z,14.40
2023-01-29T14:08:44.012Z,15.00
2023-01-29T14:11:21.777Z,15.30
2023-01-29T14:13:52.873Z,16.70
2023-01-29T14:16:21.170Z,16.50
2023-01-29T14:19:18.109Z,18.80
2023-01-29T14:21:54.589Z,16.90
2023-01-29T14:24:52.986Z,19.70
2023-01-29T14:27:46.446Z,16.90
2023-01-29T14:30:18.987Z,18.60
2023-01-29T14:33:35.503Z,19.50
2023-01-29T14:36:40.882Z,17.60
2023-01-29T14:39:55.815Z,17.80
2023-01-29T14:43:31.954Z,16.90
2023-01-29T14:46:35.678Z,15.90
2023-01-29T14:49:45.780Z,15.70
2023-01-29T14:53:14.456Z,15.60
2023-01-29T14:57:03.814Z,16.40
2023-01-29T14:59:40.096Z,18.10
2023-01-29T15:02:33.413Z,15.80
2023-01-29T15:05:02.856Z,17.30
2023-01-29T15:07:39.501Z,16.40
2023-01-29T15:11:22.651Z,18.60
2023-01-29T15:14:21.678Z,17.80
2023-01-29T15:17:38.301Z,19.00
2023-01-29T15:21:30.138Z,19.70
2023-01-29T15:25:06.248Z,17.70
2023-01-29T15:28:36.273Z,19.40
2023-01-29T15:34:22.200Z,21.10
2023-01-29T15:37:34.323Z,22.00
2023-01-29T15:40:41.798Z,23.50
2023-01-29T15:43:46.564Z,22.10
2023-01-29T15:46:39.099Z,23.10
2023-01-29T15:50:06.560Z,23.70
2023-01-29T15:52:57.312Z,24.00
2023-01-29T15:55:35.937Z,26.30
2023-01-29T15:58:03.846Z,23.40
2023-01-29T16:00:34.227Z,26.00
2023-01-29T16:03:15.138Z,25.40
2023-01-29T16:06:03.108Z,25.50
2023-01-29T16:08:32.433Z,24.50
2023-01-29T16:11:24.178Z,22.00
2023-01-29T16:14:00.257Z,22.90
2023-01-29T16:17:11.946Z,24.30
2023-01-29T16:20:06.689Z,24.00
2023-01-29T16:22:58.413Z,23.70
2023-01-29T16:26:06.759Z,24.00
2023-01-29T16:29:36.249Z,23.80
2023-01-29T16:32:29.982Z,22.40
2023-01-29T16:35:21.380Z,19.90
2023-01-29T16:37:52.050Z,18.30
2023-01-29T16:40:36.662Z,19.50
2023-01-29T16:43:53.049Z,20.80
2023-01-29T16:46:56.592Z,18.70
2023-01-29T16:49:34.908Z,19.80
2023-01-29T16:52:44.524Z,19.40
2023-01-29T16:55:33.086Z,21.20
2023-01-29T16:58:47.540Z,21.20
2023-01-29T17:01:55.525Z,22.20
2023-01-29T17:05:26.761Z,23.00
2023-01-29T17:09:18.393Z,19.10
2023-01-29T17:12:47.738Z,22.20
2023-01-29T17:16:48.021Z,23.60
2023-01-29T17:20:40.058Z,20.40
2023-01-29T17:24:28.396Z,22.10
2023-01-29T17:28:26.222Z,17.80
2023-01-29T17:32:19.509Z,20.90
2023-01-29T17:36:10.557Z,20.60
2023-01-29T17:39:58.978Z,18.70
2023-01-29T17:43:42.449Z,22.00
2023-01-29T17:46:21.323Z,21.90
2023-01-29T17:48:53.396Z,20.80
2023-01-29T17:51:23.449Z,24.60
2023-01-29T17:53:53.040Z,22.40
2023-01-29T17:56:33.689Z,24.50
2023-01-29T17:59:03.063Z,22.60
2023-01-29T18:01:31.437Z,25.20
2023-01-29T18:04:00.438Z,26.30
2023-01-29T18:06:32.703Z,25.50
2023-01-29T18:09:00.625Z,26.80
2023-01-29T18:11:30.183Z,26.50
2023-01-29T18:13:58.493Z,28.20
2023-01-29T18:16:29.687Z,26.10
2023-01-29T18:18:58.148Z,24.70
2023-01-29T18:21:26.892Z,24.50
2023-01-29T18:23:55.352Z,24.40
2023-01-29T18:26:23.815Z,27.80
2023-01-29T18:28:53.605Z,27.30
2023-01-29T18:31:22.360Z,29.00
2023-01-29T18:33:50.710Z,30.10
2023-01-29T18:36:23.666Z,22.50
2023-01-29T18:38:55.519Z,29.70
2023-01-29T18:41:24.627Z,28.10
2023-01-29T18:43:54.203Z,28.30
2023-01-29T18:46:24.947Z,25.10
2023-01-29T18:48:53.914Z,24.60
2023-01-29T18:51:22.041Z,24.10
2023-01-29T18:53:53.735Z,23.20
2023-01-29T18:56:22.281Z,24.40
2023-01-29T19:02:50.331Z,25.20
2023-01-29T19:05:24.021Z,24.00
2023-01-29T19:07:53.674Z,24.20
2023-01-29T19:10:22.604Z,19.30
2023-01-29T19:12:51.392Z,22.30
2023-01-29T19:15:22.433Z,22.30
2023-01-29T19:17:53.894Z,20.20
2023-01-29T19:20:24.701Z,23.10
2023-01-29T19:22:53.377Z,24.10
2023-01-29T19:25:24.823Z,22.70
2023-01-29T19:27:56.095Z,25.40
2023-01-29T19:30:24.592Z,23.70
2023-01-29T19:32:53.685Z,25.20
2023-01-29T19:35:23.230Z,25.70
2023-01-29T19:37:51.029Z,24.50
2023-01-29T19:40:20.283Z,23.20
2023-01-29T19:42:50.139Z,24.90
2023-01-29T19:45:18.695Z,26.90
2023-01-29T19:48:06.058Z,26.10
2023-01-29T19:50:34.883Z,26.20
2023-01-29T19:53:03.149Z,26.30
2023-01-29T19:55:35.418Z,26.70
2023-01-29T19:58:05.722Z,27.20
2023-01-29T20:00:49.520Z,25.30
2023-01-29T20:03:17.549Z,28.10
2023-01-29T20:05:49.049Z,25.20
2023-01-29T20:08:19.591Z,27.60
2023-01-29T20:10:48.897Z,28.90
2023-01-29T20:13:17.786Z,27.50
2023-01-29T20:15:52.140Z,28.80
2023-01-29T20:18:25.201Z,28.30
2023-01-29T20:20:56.763Z,30.70
2023-01-29T20:23:37.301Z,26.10
2023-01-29T20:26:08.467Z,27.20
2023-01-29T20:28:38.695Z,27.40
2023-01-29T20:31:09.555Z,28.50
2023-01-29T20:33:39.627Z,26.30
2023-01-29T20:36:10.929Z,29.40
2023-01-29T20:38:40.967Z,33.90
2023-01-29T20:41:19.815Z,28.80
2023-01-29T20:43:50.853Z,30.30
2023-01-29T20:46:19.845Z,33.40
2023-01-29T20:48:49.970Z,28.40
2023-01-29T20:51:18.775Z,30.60
2023-01-29T20:53:49.253Z,29.60
2023-01-29T20:56:24.570Z,28.80
2023-01-29T21:01:32.415Z,33.50
2023-01-29T21:04:00.656Z,33.90
2023-01-29T21:06:30.816Z,34.70
2023-01-29T21:08:59.106Z,32.40
2023-01-29T21:11:27.315Z,27.50
2023-01-29T21:14:00.430Z,31.40
2023-01-29T21:16:28.608Z,28.90
2023-01-29T21:18:58.657Z,27.80
2023-01-29T21:21:27.232Z,32.20
2023-01-29T21:23:56.802Z,29.60
2023-01-29T21:26:26.020Z,33.70
2023-01-29T21:28:53.929Z,33.50
2023-01-29T21:31:22.463Z,34.80
2023-01-29T21:33:51.387Z,31.90
2023-01-29T21:36:19.133Z,28.70
2023-01-29T21:38:46.706Z,31.60
2023-01-29T21:41:14.700Z,28.80
2023-01-29T21:43:46.189Z,34.30
2023-01-29T21:46:14.239Z,32.80
2023-01-29T21:48:41.968Z,36.80
2023-01-29T21:51:09.742Z,35.20
2023-01-29T21:53:37.821Z,36.20
2023-01-29T21:56:06.324Z,36.40
2023-01-29T21:58:33.913Z,32.40
2023-01-29T22:01:36.725Z,30.20
2023-01-29T22:03:48.959Z,32.70
2023-01-29T22:06:16.288Z,35.50
2023-01-29T22:08:43.737Z,35.70
2023-01-29T22:11:11.449Z,35.20
2023-01-29T22:13:39.223Z,36.40
2023-01-29T22:16:06.877Z,36.80
2023-01-29T22:18:35.228Z,37.60
2023-01-29T22:21:05.578Z,36.80
2023-01-29T22:23:32.961Z,35.40
2023-01-29T22:26:05.223Z,34.60
2023-01-29T22:28:32.763Z,31.40
2023-01-29T22:31:04.845Z,34.50
2023-01-29T22:33:33.733Z,36.20
2023-01-29T22:36:01.244Z,29.00
2023-01-29T22:38:29.453Z,36.50
2023-01-29T22:40:58.177Z,32.70
2023-01-29T22:43:29.705Z,32.30
2023-01-29T22:45:57.603Z,30.90
2023-01-29T22:48:25.077Z,32.90
2023-01-29T22:51:12.118Z,32.50
2023-01-29T22:53:41.304Z,32.70
2023-01-29T22:56:09.769Z,33.00
2023-01-29T22:58:37.528Z,26.50
2023-01-29T23:01:05.621Z,32.00
2023-01-29T23:03:33.225Z,32.10
2023-01-29T23:06:01.318Z,29.20
2023-01-29T23:08:28.545Z,29.60
2023-01-29T23:10:58.840Z,28.00
2023-01-29T23:13:26.903Z,29.30
2023-01-29T23:16:00.763Z,26.60
2023-01-29T23:18:28.106Z,29.10
2023-01-29T23:20:59.028Z,30.90
2023-01-29T23:23:29.360Z,29.50
2023-01-29T23:26:19.918Z,28.90
2023-01-29T23:28:47.855Z,26.30
2023-01-29T23:31:15.908Z,24.40
2023-01-29T23:33:44.541Z,26.60
2023-01-29T23:36:12.185Z,25.60
2023-01-29T23:38:39.665Z,26.00
2023-01-29T23:41:07.356Z,26.60
2023-01-29T23:43:35.542Z,25.70
2023-01-29T23:46:02.996Z,23.40
2023-01-29T23:48:30.387Z,26.10
2023-01-29T23:50:58.488Z,26.00
2023-01-29T23:53:26.697Z,24.10
2023-01-29T23:55:59.964Z,25.50
2023-01-29T23:58:28.922Z,20.70
